createdAt,value
2022-09-10T00:00:25.139Z,100554.34
2022-09-10T00:02:57.722Z,100557.50
2022-09-10T00:05:27.794Z,100563.91
2022-09-10T00:07:58.414Z,100553.84
2022-09-10T00:10:28.162Z,100563.88
2022-09-10T00:12:57.943Z,100557.50
2022-09-10T00:15:27.685Z,100560.88
2022-09-10T00:18:00.060Z,100556.56
2022-09-10T00:20:29.919Z,100563.56
2022-09-10T00:22:59.664Z,100555.72
2022-09-10T00:25:33.285Z,100553.25
2022-09-10T00:28:03.195Z,100553.63
2022-09-10T00:30:33.212Z,100549.91
2022-09-10T00:33:06.119Z,100552.00
2022-09-10T00:35:35.965Z,100546.84
2022-09-10T00:38:06.667Z,100559.66
2022-09-10T00:40:37.636Z,100551.81
2022-09-10T00:43:14.430Z,100555.31
2022-09-10T00:45:46.826Z,100551.59
2022-09-10T00:48:23.531Z,100554.50
2022-09-10T00:50:54.978Z,100545.22
2022-09-10T00:53:30.979Z,100549.41
2022-09-10T00:56:05.058Z,100541.81
2022-09-10T00:58:35.484Z,100544.25
2022-09-10T01:01:06.448Z,100544.25
2022-09-10T01:03:39.202Z,100551.28
2022-09-10T01:06:10.712Z,100537.63
2022-09-10T01:08:40.652Z,100543.00
2022-09-10T01:11:27.162Z,100544.50
2022-09-10T01:14:12.582Z,100533.34
2022-09-10T01:16:51.713Z,100547.25
2022-09-10T01:19:50.964Z,100541.06
2022-09-10T01:22:34.010Z,100539.63
2022-09-10T01:25:10.932Z,100536.56
2022-09-10T01:27:47.689Z,100536.41
2022-09-10T01:30:22.195Z,100541.16
2022-09-10T01:33:02.298Z,100554.44
2022-09-10T01:35:41.556Z,100549.25
2022-09-10T01:38:15.881Z,100550.50
2022-09-10T01:40:46.731Z,100546.13
2022-09-10T01:43:23.648Z,100540.38
2022-09-10T01:46:14.194Z,100548.69
2022-09-10T01:49:06.673Z,100541.66
2022-09-10T01:51:49.155Z,100540.00
2022-09-10T01:54:35.360Z,100543.53
2022-09-10T01:57:13.494Z,100539.78
2022-09-10T01:59:54.393Z,100541.22
2022-09-10T02:02:28.831Z,100539.13
2022-09-10T02:05:01.633Z,100539.13
2022-09-10T02:07:35.022Z,100538.28
2022-09-10T02:10:08.412Z,100533.38
2022-09-10T02:12:44.786Z,100537.91
2022-09-10T02:15:38.876Z,100544.13
2022-09-10T02:18:14.690Z,100544.13
2022-09-10T02:20:45.459Z,100548.06
2022-09-10T02:23:19.680Z,100548.31
2022-09-10T02:25:50.810Z,100550.38
2022-09-10T02:28:20.685Z,100557.03
2022-09-10T02:30:53.082Z,100561.44
2022-09-10T02:33:22.990Z,100551.94
2022-09-10T02:35:53.826Z,100555.44
2022-09-10T02:38:24.463Z,100557.91
2022-09-10T02:40:55.743Z,100553.38
2022-09-10T02:43:26.968Z,100560.84
2022-09-10T02:46:02.522Z,100554.03
2022-09-10T02:48:32.531Z,100559.63
2022-09-10T02:51:02.795Z,100559.63
2022-09-10T02:53:33.143Z,100554.47
2022-09-10T02:56:07.730Z,100557.38
2022-09-10T02:58:39.053Z,100565.06
2022-09-10T03:01:14.915Z,100560.53
2022-09-10T03:03:46.012Z,100558.50
2022-09-10T03:06:15.828Z,100565.53
2022-09-10T03:08:45.642Z,100554.78
2022-09-10T03:11:16.718Z,100551.88
2022-09-10T03:13:47.957Z,100555.38
2022-09-10T03:16:21.226Z,100548.97
2022-09-10T03:18:52.079Z,100553.53
2022-09-10T03:21:25.215Z,100551.06
2022-09-10T03:23:58.258Z,100548.59
2022-09-10T03:26:32.080Z,100548.38
2022-09-10T03:29:02.913Z,100547.53
2022-09-10T03:31:40.321Z,100552.97
2022-09-10T03:34:10.467Z,100551.09
2022-09-10T03:36:40.274Z,100542.44
2022-09-10T03:39:12.660Z,100548.03
2022-09-10T03:41:42.491Z,100548.47
2022-09-10T03:44:12.358Z,100546.84
2022-09-10T03:46:45.603Z,100543.09
2022-09-10T03:49:18.435Z,100547.44
2022-09-10T03:51:48.447Z,100551.16
2022-09-10T03:54:19.366Z,100545.56
2022-09-10T03:56:49.611Z,100545.78
2022-09-10T03:59:19.501Z,100541.25
2022-09-10T04:01:52.313Z,100546.22
2022-09-10T04:04:23.228Z,100542.94
2022-09-10T04:06:55.427Z,100551.44
2022-09-10T04:09:28.377Z,100555.16
2022-09-10T04:11:58.935Z,100556.22
2022-09-10T04:14:29.955Z,100545.69
2022-09-10T04:17:04.529Z,100548.59
2022-09-10T04:19:35.472Z,100553.75
2022-09-10T04:22:05.831Z,100553.13
2022-09-10T04:24:35.755Z,100553.56
2022-09-10T04:27:08.177Z,100557.72
2022-09-10T04:29:38.139Z,100563.28
2022-09-10T04:32:10.716Z,100565.56
2022-09-10T04:34:40.536Z,100562.06
2022-09-10T04:37:10.399Z,100561.44
2022-09-10T04:39:40.490Z,100563.53
2022-09-10T04:42:10.378Z,100560.84
2022-09-10T04:44:40.493Z,100562.91
2022-09-10T04:47:12.991Z,100558.41
2022-09-10T04:49:43.556Z,100554.09
2022-09-10T04:52:14.407Z,100552.44
2022-09-10T04:54:44.228Z,100550.19
2022-09-10T04:57:15.125Z,100550.63
2022-09-10T04:59:45.466Z,100556.00
2022-09-10T05:02:19.018Z,100561.78
2022-09-10T05:04:49.298Z,100556.59
2022-09-10T05:07:19.123Z,100561.97
2022-09-10T05:09:49.004Z,100552.25
2022-09-10T05:12:20.072Z,100543.38
2022-09-10T05:14:49.834Z,100552.47
2022-09-10T05:17:22.237Z,100559.75
2022-09-10T05:19:52.117Z,100565.94
2022-09-10T05:22:28.548Z,100570.44
2022-09-10T05:25:03.643Z,100570.41
2022-09-10T05:27:35.468Z,100569.53
2022-09-10T05:30:05.911Z,100567.84
2022-09-10T05:32:38.520Z,100576.13
2022-09-10T05:35:10.972Z,100566.19
2022-09-10T05:37:43.734Z,100558.28
2022-09-10T05:40:16.643Z,100565.25
2022-09-10T05:42:47.041Z,100566.41
2022-09-10T05:45:18.802Z,100569.25
2022-09-10T05:47:53.078Z,100565.81
2022-09-10T05:50:26.510Z,100557.84
2022-09-10T05:52:56.750Z,100561.91
2022-09-10T05:55:30.470Z,100562.34
2022-09-10T05:58:00.347Z,100570.16
2022-09-10T06:00:30.420Z,100567.47
2022-09-10T06:03:06.067Z,100574.22
2022-09-10T06:05:44.480Z,100576.78
2022-09-10T06:08:15.484Z,100578.56
2022-09-10T06:10:57.445Z,100574.38
2022-09-10T06:13:29.839Z,100568.28
2022-09-10T06:16:00.342Z,100572.38
2022-09-10T06:18:34.692Z,100579.25
2022-09-10T06:21:26.196Z,100579.75
2022-09-10T06:23:58.138Z,100579.47
2022-09-10T06:26:31.253Z,100583.75
2022-09-10T06:29:06.260Z,100586.00
2022-09-10T06:31:37.489Z,100584.94
2022-09-10T06:34:11.643Z,100580.66
2022-09-10T06:36:42.048Z,100585.94
2022-09-10T06:39:11.916Z,100589.75
2022-09-10T06:41:51.216Z,100590.38
2022-09-10T06:44:56.324Z,100592.06
2022-09-10T06:48:34.709Z,100593.28
2022-09-10T06:50:56.109Z,100595.56
2022-09-10T06:53:33.426Z,100594.16
2022-09-10T06:56:05.976Z,100595.59
2022-09-10T06:58:39.253Z,100598.47
2022-09-10T07:01:14.147Z,100596.41
2022-09-10T07:03:48.296Z,100606.38
2022-09-10T07:06:23.220Z,100604.72
2022-09-10T07:08:59.674Z,100602.50
2022-09-10T07:11:39.274Z,100602.63
2022-09-10T07:14:14.438Z,100603.56
2022-09-10T07:16:46.369Z,100599.25
2022-09-10T07:19:17.778Z,100601.56
2022-09-10T07:21:51.363Z,100605.19
2022-09-10T07:24:21.965Z,100598.72
2022-09-10T07:27:07.183Z,100593.06
2022-09-10T07:29:38.767Z,100604.38
2022-09-10T07:32:13.884Z,100595.94
2022-09-10T07:34:44.256Z,100609.41
2022-09-10T07:37:18.308Z,100590.19
2022-09-10T07:39:49.594Z,100598.84
2022-09-10T07:42:20.159Z,100597.38
2022-09-10T07:44:51.256Z,100604.59
2022-09-10T07:47:21.713Z,100597.13
2022-09-10T07:49:52.910Z,100598.06
2022-09-10T07:52:28.110Z,100587.81
2022-09-10T07:54:58.978Z,100583.66
2022-09-10T07:57:31.353Z,100591.41
2022-09-10T08:00:04.479Z,100588.22
2022-09-10T08:02:46.916Z,100592.06
2022-09-10T08:05:22.439Z,100590.28
2022-09-10T08:07:57.218Z,100595.91
2022-09-10T08:10:29.506Z,100592.25
2022-09-10T08:13:00.596Z,100601.88
2022-09-10T08:15:30.621Z,100601.44
2022-09-10T08:18:03.108Z,100596.72
2022-09-10T08:20:33.761Z,100602.22
2022-09-10T08:23:06.587Z,100598.31
2022-09-10T08:25:38.106Z,100604.03
2022-09-10T08:28:08.571Z,100609.38
2022-09-10T08:30:38.778Z,100610.75
2022-09-10T08:33:08.918Z,100605.34
2022-09-10T08:35:38.806Z,100607.31
2022-09-10T08:38:12.850Z,100610.34
2022-09-10T08:40:44.919Z,100605.28
2022-09-10T08:43:16.180Z,100608.19
2022-09-10T08:45:53.844Z,100611.59
2022-09-10T08:48:26.650Z,100614.25
2022-09-10T08:51:01.720Z,100617.69
2022-09-10T08:53:45.940Z,100618.69
2022-09-10T08:56:20.144Z,100623.13
2022-09-10T08:58:57.254Z,100616.38
2022-09-10T09:01:34.763Z,100609.38
2022-09-10T09:04:13.389Z,100611.13
2022-09-10T09:06:48.284Z,100615.34
2022-09-10T09:09:22.055Z,100613.56
2022-09-10T09:12:00.109Z,100610.25
2022-09-10T09:14:48.071Z,100608.53
2022-09-10T09:17:38.740Z,100610.25
2022-09-10T09:20:18.395Z,100611.34
2022-09-10T09:23:09.709Z,100599.75
2022-09-10T09:25:50.950Z,100611.81
2022-09-10T09:28:31.593Z,100608.38
2022-09-10T09:31:09.480Z,100606.34
2022-09-10T09:33:40.524Z,100608.00
2022-09-10T09:36:18.533Z,100606.38
2022-09-10T09:38:51.685Z,100611.56
2022-09-10T09:41:33.102Z,100600.41
2022-09-10T09:44:08.321Z,100608.59
2022-09-10T09:46:39.029Z,100603.44
2022-09-10T09:49:16.676Z,100606.38
2022-09-10T09:51:51.874Z,100603.91
2022-09-10T09:57:21.866Z,100607.75
2022-09-10T09:59:53.185Z,100596.88
2022-09-10T10:02:25.746Z,100605.78
2022-09-10T10:05:03.501Z,100598.66
2022-09-10T10:07:36.343Z,100598.75
2022-09-10T10:10:25.067Z,100591.59
2022-09-10T10:12:58.323Z,100593.03
2022-09-10T10:15:46.285Z,100595.81
2022-09-10T10:18:31.863Z,100594.94
2022-09-10T10:21:16.543Z,100593.56
2022-09-10T10:23:46.709Z,100586.13
2022-09-10T10:26:27.687Z,100585.97
2022-09-10T10:29:04.216Z,100586.28
2022-09-10T10:31:43.538Z,100585.19
2022-09-10T10:34:35.421Z,100586.53
2022-09-10T10:37:12.295Z,100587.91
2022-09-10T10:40:02.135Z,100592.56
2022-09-10T10:42:37.123Z,100579.72
2022-09-10T10:45:24.470Z,100586.44
2022-09-10T10:48:02.555Z,100582.19
2022-09-10T10:50:39.856Z,100585.25
2022-09-10T10:53:21.599Z,100587.31
2022-09-10T10:55:59.837Z,100584.53
2022-09-10T10:58:41.725Z,100578.38
2022-09-10T11:01:22.817Z,100580.16
2022-09-10T11:04:02.330Z,100574.38
2022-09-10T11:06:38.452Z,100582.41
2022-09-10T11:09:14.721Z,100578.03
2022-09-10T11:11:55.294Z,100581.91
2022-09-10T11:14:32.748Z,100585.28
2022-09-10T11:17:08.670Z,100587.31
2022-09-10T11:19:56.398Z,100583.56
2022-09-10T11:22:39.798Z,100583.25
2022-09-10T11:25:20.661Z,100585.94
2022-09-10T11:27:55.371Z,100573.50
2022-09-10T11:30:25.298Z,100579.47
2022-09-10T11:33:05.063Z,100579.03
2022-09-10T11:35:40.189Z,100573.75
2022-09-10T11:38:20.740Z,100565.03
2022-09-10T11:40:58.361Z,100564.63
2022-09-10T11:43:37.283Z,100568.72
2022-09-10T11:46:15.188Z,100570.44
2022-09-10T11:48:53.443Z,100573.44
2022-09-10T11:51:30.595Z,100570.66
2022-09-10T11:54:01.058Z,100563.75
2022-09-10T11:56:46.203Z,100566.78
2022-09-10T11:59:37.437Z,100562.31
2022-09-10T12:02:29.050Z,100555.47
2022-09-10T12:05:10.977Z,100560.28
2022-09-10T12:07:51.120Z,100553.94
2022-09-10T12:10:32.271Z,100552.19
2022-09-10T12:13:02.567Z,100553.75
2022-09-10T12:15:34.539Z,100552.06
2022-09-10T12:18:07.458Z,100543.59
2022-09-10T12:20:47.272Z,100543.56
2022-09-10T12:23:21.073Z,100550.91
2022-09-10T12:26:00.606Z,100549.81
2022-09-10T12:29:00.456Z,100547.91
2022-09-10T12:31:32.598Z,100546.56
2022-09-10T12:34:18.006Z,100550.06
2022-09-10T12:37:19.166Z,100550.22
2022-09-10T12:39:52.416Z,100552.03
2022-09-10T12:42:42.750Z,100554.03
2022-09-10T12:45:12.556Z,100541.75
2022-09-10T12:47:53.062Z,100537.09
2022-09-10T12:50:32.353Z,100541.16
2022-09-10T12:53:27.001Z,100531.75
2022-09-10T12:56:04.862Z,100531.78
2022-09-10T12:58:59.965Z,100529.22
2022-09-10T13:01:43.199Z,100526.66
2022-09-10T13:04:28.535Z,100528.59
2022-09-10T13:07:01.871Z,100521.47
2022-09-10T13:09:34.447Z,100526.31
2022-09-10T13:12:18.998Z,100524.28
2022-09-10T13:14:52.880Z,100521.69
2022-09-10T13:18:03.272Z,100516.66
2022-09-10T13:20:35.635Z,100511.38
2022-09-10T13:23:07.043Z,100516.94
2022-09-10T13:25:40.554Z,100516.34
2022-09-10T13:28:40.972Z,100513.44
2022-09-10T13:31:21.812Z,100511.78
2022-09-10T13:34:13.416Z,100505.53
2022-09-10T13:36:55.614Z,100508.66
2022-09-10T13:39:46.182Z,100505.06
2022-09-10T13:42:34.997Z,100509.88
2022-09-10T13:45:22.643Z,100507.03
2022-09-10T13:48:02.403Z,100512.72
2022-09-10T13:50:39.557Z,100510.81
2022-09-10T13:53:11.347Z,100508.66
2022-09-10T13:55:43.022Z,100510.94
2022-09-10T13:58:17.516Z,100503.38
2022-09-10T14:00:55.645Z,100499.91
2022-09-10T14:03:33.116Z,100506.69
2022-09-10T14:06:05.349Z,100503.22
2022-09-10T14:08:38.923Z,100506.25
2022-09-10T14:11:16.916Z,100505.72
2022-09-10T14:13:55.500Z,100506.59
2022-09-10T14:16:30.374Z,100506.91
2022-09-10T14:19:05.482Z,100495.31
2022-09-10T14:21:35.586Z,100502.44
2022-09-10T14:24:05.797Z,100496.75
2022-09-10T14:26:36.050Z,100491.59
2022-09-10T14:29:25.519Z,100501.88
2022-09-10T14:31:55.433Z,100499.41
2022-09-10T14:34:34.989Z,100494.75
2022-09-10T14:37:25.487Z,100501.78
2022-09-10T14:39:56.582Z,100508.03
2022-09-10T14:42:29.647Z,100502.56
2022-09-10T14:44:59.609Z,100503.06
2022-09-10T14:47:34.845Z,100503.59
2022-09-10T14:50:34.698Z,100492.44
2022-09-10T14:53:04.607Z,100498.38
2022-09-10T14:55:35.196Z,100498.31
2022-09-10T14:58:05.053Z,100499.59
2022-09-10T15:00:35.945Z,100503.25
2022-09-10T15:03:05.933Z,100512.66
2022-09-10T15:05:39.346Z,100515.56
2022-09-10T15:08:09.157Z,100523.41
2022-09-10T15:10:39.696Z,100521.28
2022-09-10T15:13:09.918Z,100517.00
2022-09-10T15:15:39.938Z,100528.13
2022-09-10T15:18:14.994Z,100526.56
2022-09-10T15:20:47.450Z,100531.53
2022-09-10T15:23:18.399Z,100529.94
2022-09-10T15:25:53.573Z,100520.19
2022-09-10T15:28:23.455Z,100513.97
2022-09-10T15:30:53.376Z,100509.88
2022-09-10T15:33:23.236Z,100511.97
2022-09-10T15:35:55.734Z,100511.38
2022-09-10T15:38:25.761Z,100517.63
2022-09-10T15:41:06.611Z,100507.84
2022-09-10T15:43:41.365Z,100512.44
2022-09-10T15:46:12.209Z,100504.88
2022-09-10T15:48:43.326Z,100499.72
2022-09-10T15:51:17.774Z,100509.50
2022-09-10T15:53:48.127Z,100514.69
2022-09-10T15:56:18.922Z,100521.50
2022-09-10T15:58:52.114Z,100514.78
2022-09-10T16:01:21.958Z,100517.22
2022-09-10T16:03:55.414Z,100516.41
2022-09-10T16:06:31.268Z,100516.41
2022-09-10T16:09:03.236Z,100522.38
2022-09-10T16:11:34.426Z,100525.91
2022-09-10T16:14:07.006Z,100536.50
2022-09-10T16:16:38.231Z,100528.13
2022-09-10T16:19:09.320Z,100522.44
2022-09-10T16:21:41.894Z,100536.56
2022-09-10T16:24:12.971Z,100531.69
2022-09-10T16:26:45.494Z,100531.44
2022-09-10T16:29:16.940Z,100527.66
2022-09-10T16:31:46.897Z,100537.44
2022-09-10T16:34:19.565Z,100534.97
2022-09-10T16:36:53.113Z,100538.75
2022-09-10T16:39:23.192Z,100535.47
2022-09-10T16:41:53.688Z,100541.72
2022-09-10T16:44:23.644Z,100535.75
2022-09-10T16:46:53.727Z,100539.53
2022-09-10T16:49:23.550Z,100550.03
2022-09-10T16:51:56.056Z,100555.16
2022-09-10T16:54:30.180Z,100556.47
2022-09-10T16:57:00.003Z,100561.91
2022-09-10T16:59:29.893Z,100563.44
2022-09-10T17:02:00.679Z,100553.91
2022-09-10T17:04:32.484Z,100560.63
2022-09-10T17:07:04.928Z,100557.63
2022-09-10T17:09:34.707Z,100544.59
2022-09-10T17:12:04.960Z,100547.78
2022-09-10T17:14:35.000Z,100550.19
2022-09-10T17:17:05.436Z,100558.00
2022-09-10T17:19:35.233Z,100552.25
2022-09-10T17:22:07.608Z,100554.34
2022-09-10T17:24:37.469Z,100553.78
2022-09-10T17:27:07.723Z,100556.38
2022-09-10T17:29:38.600Z,100555.22
2022-09-10T17:32:08.791Z,100551.63
2022-09-10T17:34:38.601Z,100566.50
2022-09-10T17:37:11.191Z,100574.28
2022-09-10T17:39:40.996Z,100591.03
2022-09-10T17:42:10.851Z,100586.09
2022-09-10T17:44:40.605Z,100594.72
2022-09-10T17:47:10.422Z,100599.56
2022-09-10T17:49:40.605Z,100590.03
2022-09-10T17:52:14.643Z,100593.47
2022-09-10T17:54:44.409Z,100605.56
2022-09-10T17:57:14.835Z,100604.44
2022-09-10T17:59:44.673Z,100604.09
2022-09-10T18:02:16.888Z,100602.13
2022-09-10T18:04:46.796Z,100608.59
2022-09-10T18:07:19.334Z,100600.16
2022-09-10T18:09:49.185Z,100607.47
2022-09-10T18:12:19.068Z,100606.88
2022-09-10T18:14:48.904Z,100615.47
2022-09-10T18:17:18.749Z,100611.63
2022-09-10T18:19:48.620Z,100609.66
2022-09-10T18:22:20.997Z,100619.06
2022-09-10T18:24:50.811Z,100616.63
2022-09-10T18:27:20.776Z,100617.06
2022-09-10T18:29:50.766Z,100617.31
2022-09-10T18:32:20.621Z,100622.63
2022-09-10T18:34:50.594Z,100619.34
2022-09-10T18:37:23.081Z,100629.84
2022-09-10T18:39:53.776Z,100624.66
2022-09-10T18:42:23.620Z,100623.50
2022-09-10T18:44:53.523Z,100624.00
2022-09-10T18:47:43.407Z,100622.34
2022-09-10T18:50:13.968Z,100626.13
2022-09-10T18:52:46.480Z,100621.41
2022-09-10T18:55:16.229Z,100623.28
2022-09-10T18:57:46.246Z,100621.06
2022-09-10T19:00:17.086Z,100616.16
2022-09-10T19:02:47.454Z,100611.56
2022-09-10T19:05:17.436Z,100613.66
2022-09-10T19:07:51.860Z,100610.13
2022-09-10T19:10:21.662Z,100600.97
2022-09-10T19:12:51.964Z,100607.44
2022-09-10T19:15:21.717Z,100608.50
2022-09-10T19:17:51.634Z,100603.56
2022-09-10T19:20:21.948Z,100606.50
2022-09-10T19:22:54.381Z,100607.00
2022-09-10T19:25:24.293Z,100600.19
2022-09-10T19:27:54.110Z,100596.09
2022-09-10T19:30:24.131Z,100595.50
2022-09-10T19:32:53.945Z,100594.69
2022-09-10T19:35:24.001Z,100599.75
2022-09-10T19:37:56.340Z,100603.19
2022-09-10T19:40:26.110Z,100604.25
2022-09-10T19:42:56.324Z,100600.38
2022-09-10T19:45:27.307Z,100598.16
2022-09-10T19:47:59.362Z,100595.06
2022-09-10T19:50:31.006Z,100597.44
2022-09-10T19:53:03.390Z,100599.22
2022-09-10T19:55:34.257Z,100597.56
2022-09-10T19:58:04.135Z,100597.81
2022-09-10T20:00:46.278Z,100608.03
2022-09-10T20:03:16.925Z,100607.44
2022-09-10T20:05:46.669Z,100614.38
2022-09-10T20:08:19.161Z,100611.34
2022-09-10T20:10:52.331Z,100607.19
2022-09-10T20:13:23.739Z,100607.69
2022-09-10T20:15:53.919Z,100609.44
2022-09-10T20:18:29.340Z,100615.75
2022-09-10T20:20:59.343Z,100613.88
2022-09-10T20:23:31.724Z,100607.88
2022-09-10T20:26:10.841Z,100610.00
2022-09-10T20:28:41.409Z,100615.41
2022-09-10T20:31:13.238Z,100608.25
2022-09-10T20:33:45.345Z,100613.88
2022-09-10T20:36:17.714Z,100617.63
2022-09-10T20:38:50.550Z,100618.94
2022-09-10T20:41:20.783Z,100619.16
2022-09-10T20:43:54.316Z,100614.47
2022-09-10T20:46:26.384Z,100622.56
2022-09-10T20:48:56.934Z,100621.97
2022-09-10T20:51:26.815Z,100618.94
2022-09-10T20:53:59.217Z,100612.13
2022-09-10T20:56:29.016Z,100614.00
2022-09-10T20:58:59.525Z,100615.88
2022-09-10T21:01:31.138Z,100614.66
2022-09-10T21:04:03.072Z,100613.03
2022-09-10T21:06:35.282Z,100615.13
2022-09-10T21:09:08.856Z,100615.59
2022-09-10T21:11:38.908Z,100611.25
2022-09-10T21:14:10.309Z,100618.78
2022-09-10T21:16:42.388Z,100623.56
2022-09-10T21:19:14.944Z,100624.88
2022-09-10T21:21:46.250Z,100625.09
2022-09-10T21:24:22.580Z,100624.50
2022-09-10T21:26:53.719Z,100621.00
2022-09-10T21:29:24.553Z,100628.84
2022-09-10T21:31:54.846Z,100635.53
2022-09-10T21:34:24.675Z,100635.53
2022-09-10T21:36:55.316Z,100637.88
2022-09-10T21:39:27.726Z,100631.50
2022-09-10T21:41:58.568Z,100633.25
2022-09-10T21:44:28.611Z,100634.72
2022-09-10T21:46:58.430Z,100634.59
2022-09-10T21:49:28.207Z,100633.19
2022-09-10T21:51:58.139Z,100637.97
2022-09-10T21:54:30.603Z,100632.81
2022-09-10T21:57:00.409Z,100627.44
2022-09-10T21:59:30.168Z,100632.81
2022-09-10T22:02:00.595Z,100634.91
2022-09-10T22:04:30.603Z,100642.88
2022-09-10T22:07:00.351Z,100640.63
2022-09-10T22:09:32.691Z,100632.41
2022-09-10T22:12:02.465Z,100640.72
2022-09-10T22:14:33.263Z,100635.56
2022-09-10T22:17:03.368Z,100629.59
2022-09-10T22:19:33.107Z,100636.03
2022-09-10T22:22:02.889Z,100638.50
2022-09-10T22:24:35.257Z,100638.13
2022-09-10T22:27:05.042Z,100639.78
2022-09-10T22:29:34.791Z,100646.22
2022-09-10T22:32:04.907Z,100637.31
2022-09-10T22:34:34.687Z,100636.50
2022-09-10T22:37:04.573Z,100633.78
2022-09-10T22:39:37.261Z,100637.50
2022-09-10T22:42:07.643Z,100639.59
2022-09-10T22:44:37.412Z,100641.69
2022-09-10T22:47:08.113Z,100634.66
2022-09-10T22:49:37.915Z,100631.38
2022-09-10T22:52:07.709Z,100638.66
2022-09-10T22:54:40.047Z,100649.66
2022-09-10T22:57:10.987Z,100645.31
2022-09-10T22:59:41.336Z,100652.34
2022-09-10T23:02:11.070Z,100659.00
2022-09-10T23:04:42.706Z,100659.22
2022-09-10T23:07:13.059Z,100663.56
2022-09-10T23:09:45.407Z,100669.41
2022-09-10T23:12:15.144Z,100670.22
2022-09-10T23:14:44.911Z,100669.41
2022-09-10T23:17:15.541Z,100664.03
2022-09-10T23:19:47.317Z,100673.75
2022-09-10T23:22:17.069Z,100668.38
2022-09-10T23:24:49.365Z,100667.78
2022-09-10T23:27:19.128Z,100674.19
2022-09-10T23:29:48.900Z,100673.59
2022-09-10T23:32:18.868Z,100671.38
2022-09-10T23:34:50.530Z,100673.25
2022-09-10T23:37:20.391Z,100670.53
2022-09-10T23:39:53.029Z,100670.53
2022-09-10T23:42:22.906Z,100667.03
2022-09-10T23:44:53.615Z,100678.03
2022-09-10T23:47:23.412Z,100674.94
2022-09-10T23:49:53.338Z,100667.69
2022-09-10T23:52:23.285Z,100666.03
2022-09-10T23:54:56.031Z,100662.75
2022-09-10T23:57:28.001Z,100669.78
2022-09-10T23:59:58.376Z,100663.56
